GFA212 OKKK-OBBI
Flight info
| Callsign | GFA212 |
|---|---|
| Flight time | 0h 57m |
| Altitude | 27000 |
| Route | BOXIK5E BOXIK B416 IMDOX P975 LONOS L703 KOBOK KOBOK1 |
| Aircraft | A320/M-VGDW/C |
Departure
| Time | 2026-04-27 17:19 |
|---|---|
| Airport | Kuwait International Airport (OKKK) |
Arrival
| Time | 2026-04-27 18:16 |
|---|---|
| Airport | Bahrain International Airport (OBBI) |
| Time | Latitude | Longitude | Altitude | Speed | Heading |
|---|---|---|---|---|---|
| 2026-04-27 16:59 | 29.23801 | 47.97298 | 170 ft | 0 kts | 244° |
| 2026-04-27 17:11 | 29.23816 | 47.97333 | 171 ft | 3 kts | 243° |
| 2026-04-27 17:11 | 29.23826 | 47.97356 | 171 ft | 3 kts | 238° |
| 2026-04-27 17:12 | 29.23850 | 47.97380 | 171 ft | 2 kts | 172° |
| 2026-04-27 17:12 | 29.23863 | 47.97377 | 152 ft | 2 kts | 159° |
| 2026-04-27 17:12 | 29.23873 | 47.97372 | 146 ft | 2 kts | 157° |
| 2026-04-27 17:13 | 29.23874 | 47.97372 | 145 ft | 0 kts | 157° |
| 2026-04-27 17:14 | 29.23872 | 47.97373 | 146 ft | 1 kts | 157° |
| 2026-04-27 17:14 | 29.23850 | 47.97383 | 170 ft | 5 kts | 156° |
| 2026-04-27 17:15 | 29.23802 | 47.97408 | 170 ft | 9 kts | 156° |
| 2026-04-27 17:15 | 29.23732 | 47.97445 | 170 ft | 13 kts | 154° |
| 2026-04-27 17:15 | 29.23647 | 47.97420 | 170 ft | 15 kts | 236° |
| 2026-04-27 17:15 | 29.23596 | 47.97296 | 170 ft | 19 kts | 245° |
| 2026-04-27 17:16 | 29.23538 | 47.97150 | 170 ft | 22 kts | 244° |
| 2026-04-27 17:16 | 29.23498 | 47.96969 | 169 ft | 25 kts | 276° |
| 2026-04-27 17:16 | 29.23526 | 47.96762 | 169 ft | 28 kts | 280° |
| 2026-04-27 17:16 | 29.23666 | 47.96608 | 166 ft | 31 kts | 335° |
| 2026-04-27 17:17 | 29.23836 | 47.96518 | 164 ft | 19 kts | 334° |
| 2026-04-27 17:17 | 29.23951 | 47.96457 | 164 ft | 17 kts | 334° |
| 2026-04-27 17:17 | 29.24062 | 47.96397 | 164 ft | 18 kts | 334° |
| 2026-04-27 17:18 | 29.24028 | 47.96190 | 158 ft | 18 kts | 219° |
| 2026-04-27 17:18 | 29.23959 | 47.96204 | 157 ft | 9 kts | 156° |
| 2026-04-27 17:18 | 29.23855 | 47.96257 | 158 ft | 33 kts | 155° |
| 2026-04-27 17:18 | 29.23415 | 47.96493 | 163 ft | 103 kts | 155° |
| 2026-04-27 17:19 | 29.22591 | 47.96933 | 163 ft | 156 kts | 154° |
| 2026-04-27 17:19 | 29.21530 | 47.97483 | 567 ft | 168 kts | 152° |
| 2026-04-27 17:19 | 29.20481 | 47.98061 | 1187 ft | 167 kts | 148° |
| 2026-04-27 17:19 | 29.19753 | 47.99088 | 1868 ft | 171 kts | 118° |
| 2026-04-27 17:20 | 29.19220 | 48.00371 | 2245 ft | 189 kts | 120° |
| 2026-04-27 17:20 | 29.18616 | 48.01802 | 2498 ft | 212 kts | 120° |
| 2026-04-27 17:20 | 29.17932 | 48.03411 | 2788 ft | 237 kts | 119° |
| 2026-04-27 17:20 | 29.17142 | 48.05167 | 3172 ft | 259 kts | 122° |
| 2026-04-27 17:21 | 29.16243 | 48.07018 | 3811 ft | 271 kts | 122° |
| 2026-04-27 17:21 | 29.15303 | 48.08909 | 4619 ft | 276 kts | 123° |
| 2026-04-27 17:21 | 29.14342 | 48.10836 | 5411 ft | 281 kts | 123° |
| 2026-04-27 17:21 | 29.13362 | 48.12798 | 6207 ft | 287 kts | 123° |
| 2026-04-27 17:22 | 29.12364 | 48.14806 | 6943 ft | 293 kts | 122° |
| 2026-04-27 17:22 | 29.11355 | 48.16848 | 7712 ft | 298 kts | 122° |
| 2026-04-27 17:22 | 29.10329 | 48.18931 | 8486 ft | 303 kts | 122° |
| 2026-04-27 17:22 | 29.09285 | 48.21047 | 9263 ft | 307 kts | 122° |
| 2026-04-27 17:23 | 29.08228 | 48.23190 | 10005 ft | 312 kts | 121° |
| 2026-04-27 17:23 | 29.07134 | 48.25411 | 10366 ft | 333 kts | 121° |
| 2026-04-27 17:23 | 29.05956 | 48.27797 | 10603 ft | 355 kts | 121° |
| 2026-04-27 17:23 | 29.04724 | 48.30292 | 11153 ft | 364 kts | 121° |
| 2026-04-27 17:24 | 29.03469 | 48.32834 | 11859 ft | 369 kts | 121° |
| 2026-04-27 17:24 | 29.02202 | 48.35403 | 12594 ft | 373 kts | 121° |
| 2026-04-27 17:24 | 29.00922 | 48.37996 | 13327 ft | 377 kts | 121° |
| 2026-04-27 17:24 | 28.99626 | 48.40613 | 14003 ft | 381 kts | 121° |
| 2026-04-27 17:25 | 28.98315 | 48.43253 | 14635 ft | 385 kts | 121° |
| 2026-04-27 17:25 | 28.96986 | 48.45931 | 15256 ft | 389 kts | 122° |
| 2026-04-27 17:25 | 28.95643 | 48.48639 | 15874 ft | 394 kts | 122° |
| 2026-04-27 17:25 | 28.94287 | 48.51373 | 16493 ft | 398 kts | 122° |
| 2026-04-27 17:26 | 28.92914 | 48.54142 | 17093 ft | 403 kts | 122° |
| 2026-04-27 17:26 | 28.91524 | 48.56942 | 17710 ft | 407 kts | 122° |
| 2026-04-27 17:26 | 28.90121 | 48.59765 | 18277 ft | 412 kts | 123° |
| 2026-04-27 17:26 | 28.88701 | 48.62620 | 18808 ft | 416 kts | 123° |
| 2026-04-27 17:27 | 28.87266 | 48.65500 | 19340 ft | 420 kts | 123° |
| 2026-04-27 17:27 | 28.85818 | 48.68407 | 19875 ft | 423 kts | 123° |
| 2026-04-27 17:27 | 28.84353 | 48.71343 | 20414 ft | 427 kts | 123° |
| 2026-04-27 17:27 | 28.82880 | 48.74297 | 20946 ft | 431 kts | 123° |
| 2026-04-27 17:28 | 28.81384 | 48.77297 | 21483 ft | 435 kts | 124° |
| 2026-04-27 17:28 | 28.79879 | 48.80305 | 22010 ft | 439 kts | 124° |
| 2026-04-27 17:28 | 28.76855 | 48.86419 | 23041 ft | 446 kts | 123° |
| 2026-04-27 17:29 | 28.75339 | 48.89521 | 23516 ft | 450 kts | 123° |
| 2026-04-27 17:29 | 28.73817 | 48.92647 | 23923 ft | 453 kts | 123° |
| 2026-04-27 17:29 | 28.72279 | 48.95802 | 24330 ft | 456 kts | 123° |
| 2026-04-27 17:29 | 28.70731 | 48.98965 | 24726 ft | 459 kts | 124° |
| 2026-04-27 17:30 | 28.69169 | 49.02147 | 25112 ft | 462 kts | 124° |
| 2026-04-27 17:30 | 28.66003 | 49.08571 | 25844 ft | 468 kts | 124° |
| 2026-04-27 17:30 | 28.64403 | 49.11818 | 26201 ft | 472 kts | 124° |
| 2026-04-27 17:31 | 28.62790 | 49.15087 | 26548 ft | 475 kts | 124° |
| 2026-04-27 17:31 | 28.61165 | 49.18377 | 26765 ft | 477 kts | 124° |
| 2026-04-27 17:31 | 28.59347 | 49.21479 | 26831 ft | 464 kts | 135° |
| 2026-04-27 17:31 | 28.57171 | 49.24116 | 26833 ft | 452 kts | 144° |
| 2026-04-27 17:32 | 28.54715 | 49.26267 | 26829 ft | 442 kts | 154° |
| 2026-04-27 17:32 | 28.49457 | 49.29805 | 26827 ft | 447 kts | 147° |
| 2026-04-27 17:32 | 28.47115 | 49.32164 | 26831 ft | 451 kts | 144° |
| 2026-04-27 17:33 | 28.44792 | 49.34561 | 26828 ft | 451 kts | 144° |
| 2026-04-27 17:33 | 28.42458 | 49.36946 | 26831 ft | 451 kts | 145° |
| 2026-04-27 17:33 | 28.40142 | 49.39280 | 26831 ft | 451 kts | 145° |
| 2026-04-27 17:33 | 28.37783 | 49.41626 | 26828 ft | 450 kts | 146° |
| 2026-04-27 17:34 | 28.35417 | 49.43958 | 26823 ft | 450 kts | 146° |
| 2026-04-27 17:34 | 28.33052 | 49.46281 | 26821 ft | 450 kts | 146° |
| 2026-04-27 17:34 | 28.30682 | 49.48610 | 26818 ft | 450 kts | 146° |
| 2026-04-27 17:34 | 28.28317 | 49.50939 | 26816 ft | 450 kts | 146° |
| 2026-04-27 17:35 | 28.25952 | 49.53268 | 26817 ft | 450 kts | 146° |
| 2026-04-27 17:35 | 28.23590 | 49.55593 | 26815 ft | 450 kts | 146° |
| 2026-04-27 17:35 | 28.21219 | 49.57908 | 26814 ft | 449 kts | 147° |
| 2026-04-27 17:35 | 28.19587 | 49.59423 | 26815 ft | 447 kts | 149° |
| 2026-04-27 17:36 | 28.17137 | 49.61583 | 26813 ft | 446 kts | 150° |
| 2026-04-27 17:36 | 28.13843 | 49.64359 | 26811 ft | 445 kts | 151° |
| 2026-04-27 17:36 | 28.12153 | 49.65761 | 26813 ft | 445 kts | 151° |
| 2026-04-27 17:36 | 28.09658 | 49.67834 | 26814 ft | 445 kts | 151° |
| 2026-04-27 17:37 | 28.07167 | 49.69924 | 26815 ft | 445 kts | 151° |
| 2026-04-27 17:37 | 28.04688 | 49.72027 | 26812 ft | 445 kts | 151° |
| 2026-04-27 17:37 | 28.02186 | 49.74092 | 26815 ft | 444 kts | 152° |
| 2026-04-27 17:37 | 27.99660 | 49.76093 | 26817 ft | 443 kts | 153° |
| 2026-04-27 17:38 | 27.97114 | 49.78051 | 26812 ft | 443 kts | 154° |
| 2026-04-27 17:38 | 27.94552 | 49.79997 | 26814 ft | 443 kts | 154° |
| 2026-04-27 17:38 | 27.92000 | 49.81940 | 26814 ft | 443 kts | 154° |
| 2026-04-27 17:38 | 27.89451 | 49.83894 | 26813 ft | 443 kts | 153° |
| 2026-04-27 17:39 | 27.86907 | 49.85856 | 26813 ft | 443 kts | 153° |
| 2026-04-27 17:39 | 27.84367 | 49.87822 | 26812 ft | 443 kts | 153° |
| 2026-04-27 17:39 | 27.81831 | 49.89794 | 26808 ft | 443 kts | 153° |
| 2026-04-27 17:39 | 27.79296 | 49.91769 | 26808 ft | 443 kts | 153° |
| 2026-04-27 17:40 | 27.76760 | 49.93738 | 26810 ft | 443 kts | 153° |
| 2026-04-27 17:40 | 27.74220 | 49.95704 | 26811 ft | 443 kts | 153° |
| 2026-04-27 17:40 | 27.71682 | 49.97669 | 26811 ft | 443 kts | 153° |
| 2026-04-27 17:40 | 27.69142 | 49.99632 | 26810 ft | 443 kts | 153° |
| 2026-04-27 17:41 | 27.66596 | 50.01598 | 26814 ft | 443 kts | 153° |
| 2026-04-27 17:41 | 27.64054 | 50.03559 | 26812 ft | 443 kts | 153° |
| 2026-04-27 17:41 | 27.61514 | 50.05516 | 26809 ft | 443 kts | 153° |
| 2026-04-27 17:41 | 27.58972 | 50.07473 | 26807 ft | 442 kts | 153° |
| 2026-04-27 17:42 | 27.56429 | 50.09430 | 26808 ft | 442 kts | 153° |
| 2026-04-27 17:42 | 27.53887 | 50.11386 | 26803 ft | 442 kts | 153° |
| 2026-04-27 17:42 | 27.51345 | 50.13339 | 26803 ft | 442 kts | 153° |
| 2026-04-27 17:42 | 27.48802 | 50.15290 | 26802 ft | 442 kts | 153° |
| 2026-04-27 17:43 | 27.46257 | 50.17244 | 26802 ft | 443 kts | 153° |
| 2026-04-27 17:43 | 27.43722 | 50.19200 | 26793 ft | 442 kts | 153° |
| 2026-04-27 17:43 | 27.41224 | 50.21188 | 26388 ft | 437 kts | 152° |
| 2026-04-27 17:43 | 27.38775 | 50.23192 | 25807 ft | 431 kts | 151° |
| 2026-04-27 17:44 | 27.36364 | 50.25185 | 24955 ft | 428 kts | 151° |
| 2026-04-27 17:44 | 27.33976 | 50.27154 | 24128 ft | 424 kts | 151° |
| 2026-04-27 17:44 | 27.31602 | 50.29098 | 23328 ft | 420 kts | 151° |
| 2026-04-27 17:44 | 27.29243 | 50.31017 | 22440 ft | 416 kts | 151° |
| 2026-04-27 17:45 | 27.26905 | 50.32907 | 21814 ft | 413 kts | 151° |
| 2026-04-27 17:45 | 27.24582 | 50.34780 | 21408 ft | 408 kts | 150° |
| 2026-04-27 17:45 | 27.22303 | 50.36619 | 20671 ft | 401 kts | 150° |
| 2026-04-27 17:45 | 27.20050 | 50.38436 | 19913 ft | 396 kts | 150° |
| 2026-04-27 17:46 | 27.17828 | 50.40226 | 19177 ft | 390 kts | 149° |
| 2026-04-27 17:46 | 27.15621 | 50.42004 | 18691 ft | 389 kts | 149° |
| 2026-04-27 17:46 | 27.13433 | 50.43766 | 18303 ft | 386 kts | 149° |
| 2026-04-27 17:46 | 27.11260 | 50.45514 | 17877 ft | 383 kts | 149° |
| 2026-04-27 17:47 | 27.09098 | 50.47251 | 17542 ft | 377 kts | 149° |
| 2026-04-27 17:47 | 27.07708 | 50.48370 | 17447 ft | 364 kts | 148° |
| 2026-04-27 17:47 | 27.05071 | 50.50505 | 17267 ft | 336 kts | 149° |
| 2026-04-27 17:47 | 27.03209 | 50.51960 | 17019 ft | 317 kts | 156° |
| 2026-04-27 17:48 | 27.01157 | 50.52681 | 16309 ft | 308 kts | 183° |
| 2026-04-27 17:48 | 26.99069 | 50.52437 | 15910 ft | 299 kts | 202° |
| 2026-04-27 17:48 | 26.97238 | 50.51503 | 15779 ft | 282 kts | 219° |
| 2026-04-27 17:48 | 26.95818 | 50.50113 | 15635 ft | 261 kts | 235° |
| 2026-04-27 17:49 | 26.94879 | 50.48431 | 15464 ft | 250 kts | 250° |
| 2026-04-27 17:49 | 26.94415 | 50.46585 | 15225 ft | 245 kts | 264° |
| 2026-04-27 17:49 | 26.94432 | 50.44687 | 14937 ft | 244 kts | 279° |
| 2026-04-27 17:49 | 26.94929 | 50.42862 | 14475 ft | 252 kts | 297° |
| 2026-04-27 17:50 | 26.96120 | 50.41350 | 13820 ft | 273 kts | 323° |
| 2026-04-27 17:50 | 27.00032 | 50.41161 | 12396 ft | 320 kts | 26° |
| 2026-04-27 17:50 | 27.01696 | 50.42936 | 12076 ft | 345 kts | 58° |
| 2026-04-27 17:51 | 27.02444 | 50.45508 | 12004 ft | 353 kts | 87° |
| 2026-04-27 17:51 | 27.02088 | 50.48221 | 12020 ft | 351 kts | 111° |
| 2026-04-27 17:51 | 27.00992 | 50.50567 | 12012 ft | 331 kts | 134° |
| 2026-04-27 17:51 | 26.99290 | 50.52163 | 12022 ft | 310 kts | 149° |
| 2026-04-27 17:52 | 26.97533 | 50.53472 | 12020 ft | 297 kts | 149° |
| 2026-04-27 17:52 | 26.95818 | 50.54730 | 12024 ft | 293 kts | 152° |
| 2026-04-27 17:52 | 26.94029 | 50.55793 | 11999 ft | 288 kts | 161° |
| 2026-04-27 17:52 | 26.92145 | 50.56486 | 11711 ft | 282 kts | 172° |
| 2026-04-27 17:53 | 26.90217 | 50.56740 | 11404 ft | 277 kts | 181° |
| 2026-04-27 17:53 | 26.88293 | 50.56825 | 11104 ft | 275 kts | 181° |
| 2026-04-27 17:53 | 26.86383 | 50.56906 | 10794 ft | 273 kts | 181° |
| 2026-04-27 17:53 | 26.84490 | 50.56987 | 10489 ft | 272 kts | 181° |
| 2026-04-27 17:54 | 26.82609 | 50.57069 | 10179 ft | 270 kts | 181° |
| 2026-04-27 17:54 | 26.80738 | 50.57151 | 9883 ft | 268 kts | 181° |
| 2026-04-27 17:54 | 26.78881 | 50.57232 | 9559 ft | 266 kts | 181° |
| 2026-04-27 17:54 | 26.77039 | 50.57314 | 9211 ft | 264 kts | 180° |
| 2026-04-27 17:55 | 26.75204 | 50.57398 | 8855 ft | 263 kts | 180° |
| 2026-04-27 17:55 | 26.73378 | 50.57481 | 8495 ft | 262 kts | 180° |
| 2026-04-27 17:55 | 26.71559 | 50.57564 | 8159 ft | 260 kts | 180° |
| 2026-04-27 17:55 | 26.69793 | 50.57644 | 8036 ft | 249 kts | 181° |
| 2026-04-27 17:56 | 26.68102 | 50.57720 | 7881 ft | 240 kts | 181° |
| 2026-04-27 17:56 | 26.66444 | 50.57795 | 7605 ft | 237 kts | 181° |
| 2026-04-27 17:56 | 26.64804 | 50.57868 | 7292 ft | 236 kts | 181° |
| 2026-04-27 17:56 | 26.63169 | 50.57942 | 6983 ft | 235 kts | 181° |
| 2026-04-27 17:57 | 26.61539 | 50.58015 | 6680 ft | 233 kts | 181° |
| 2026-04-27 17:57 | 26.59922 | 50.58090 | 6378 ft | 232 kts | 181° |
| 2026-04-27 17:57 | 26.58310 | 50.58165 | 6068 ft | 231 kts | 181° |
| 2026-04-27 17:57 | 26.56725 | 50.58238 | 5907 ft | 223 kts | 181° |
| 2026-04-27 17:58 | 26.55212 | 50.58310 | 5780 ft | 213 kts | 181° |
| 2026-04-27 17:58 | 26.53751 | 50.58380 | 5565 ft | 208 kts | 179° |
| 2026-04-27 17:58 | 26.52326 | 50.58684 | 5289 ft | 210 kts | 164° |
| 2026-04-27 17:58 | 26.51017 | 50.59404 | 5078 ft | 208 kts | 147° |
| 2026-04-27 17:59 | 26.49878 | 50.60448 | 5058 ft | 218 kts | 136° |
| 2026-04-27 17:59 | 26.49039 | 50.61850 | 5016 ft | 220 kts | 117° |
| 2026-04-27 17:59 | 26.48594 | 50.63495 | 5012 ft | 224 kts | 100° |
| 2026-04-27 17:59 | 26.48373 | 50.65218 | 5015 ft | 224 kts | 102° |
| 2026-04-27 18:00 | 26.48098 | 50.66928 | 5013 ft | 224 kts | 103° |
| 2026-04-27 18:00 | 26.47811 | 50.68639 | 5015 ft | 224 kts | 103° |
| 2026-04-27 18:00 | 26.47524 | 50.70352 | 5014 ft | 224 kts | 103° |
| 2026-04-27 18:00 | 26.47343 | 50.72078 | 5008 ft | 225 kts | 84° |
| 2026-04-27 18:01 | 26.47881 | 50.73703 | 5019 ft | 227 kts | 59° |
| 2026-04-27 18:01 | 26.48491 | 50.75313 | 5007 ft | 225 kts | 85° |
| 2026-04-27 18:01 | 26.48269 | 50.77000 | 5016 ft | 220 kts | 121° |
| 2026-04-27 18:01 | 26.47270 | 50.78212 | 5017 ft | 211 kts | 156° |
| 2026-04-27 18:02 | 26.45922 | 50.78840 | 5024 ft | 211 kts | 156° |
| 2026-04-27 18:02 | 26.44858 | 50.79977 | 5022 ft | 219 kts | 120° |
| 2026-04-27 18:02 | 26.44255 | 50.81548 | 5015 ft | 220 kts | 122° |
| 2026-04-27 18:02 | 26.43217 | 50.82721 | 5010 ft | 211 kts | 159° |
| 2026-04-27 18:03 | 26.41838 | 50.83213 | 5021 ft | 208 kts | 173° |
| 2026-04-27 18:03 | 26.40442 | 50.83662 | 5020 ft | 211 kts | 158° |
| 2026-04-27 18:03 | 26.39135 | 50.84436 | 5015 ft | 213 kts | 154° |
| 2026-04-27 18:03 | 26.37853 | 50.85269 | 5014 ft | 214 kts | 153° |
| 2026-04-27 18:04 | 26.36571 | 50.86111 | 5013 ft | 214 kts | 153° |
| 2026-04-27 18:04 | 26.35203 | 50.86648 | 5007 ft | 206 kts | 184° |
| 2026-04-27 18:04 | 26.33849 | 50.86274 | 5023 ft | 202 kts | 208° |
| 2026-04-27 18:04 | 26.32617 | 50.85539 | 4948 ft | 200 kts | 212° |
| 2026-04-27 18:05 | 26.31418 | 50.84758 | 4687 ft | 199 kts | 213° |
| 2026-04-27 18:05 | 26.30234 | 50.83971 | 4419 ft | 198 kts | 213° |
| 2026-04-27 18:05 | 26.29176 | 50.83025 | 4143 ft | 195 kts | 237° |
| 2026-04-27 18:05 | 26.28820 | 50.81603 | 3849 ft | 196 kts | 274° |
| 2026-04-27 18:06 | 26.29301 | 50.80171 | 3531 ft | 202 kts | 298° |
| 2026-04-27 18:06 | 26.30102 | 50.78857 | 3211 ft | 206 kts | 302° |
| 2026-04-27 18:06 | 26.30949 | 50.77564 | 3024 ft | 206 kts | 303° |
| 2026-04-27 18:06 | 26.31809 | 50.76268 | 3008 ft | 209 kts | 303° |
| 2026-04-27 18:07 | 26.32674 | 50.74964 | 3010 ft | 209 kts | 303° |
| 2026-04-27 18:07 | 26.33538 | 50.73662 | 3011 ft | 209 kts | 303° |
| 2026-04-27 18:07 | 26.34404 | 50.72356 | 3009 ft | 210 kts | 303° |
| 2026-04-27 18:07 | 26.35271 | 50.71044 | 3008 ft | 210 kts | 303° |
| 2026-04-27 18:08 | 26.36139 | 50.69733 | 3008 ft | 210 kts | 303° |
| 2026-04-27 18:08 | 26.37004 | 50.68426 | 3007 ft | 210 kts | 303° |
| 2026-04-27 18:08 | 26.37875 | 50.67118 | 3006 ft | 210 kts | 303° |
| 2026-04-27 18:08 | 26.38745 | 50.65812 | 3007 ft | 210 kts | 303° |
| 2026-04-27 18:09 | 26.39614 | 50.64508 | 3006 ft | 210 kts | 303° |
| 2026-04-27 18:09 | 26.40488 | 50.63198 | 3007 ft | 210 kts | 303° |
| 2026-04-27 18:09 | 26.41361 | 50.61890 | 3011 ft | 210 kts | 303° |
| 2026-04-27 18:09 | 26.42237 | 50.60583 | 3012 ft | 210 kts | 303° |
| 2026-04-27 18:10 | 26.43101 | 50.59289 | 3009 ft | 210 kts | 303° |
| 2026-04-27 18:10 | 26.43864 | 50.57902 | 3005 ft | 205 kts | 282° |
| 2026-04-27 18:10 | 26.43954 | 50.56876 | 3009 ft | 199 kts | 257° |
| 2026-04-27 18:10 | 26.43212 | 50.55041 | 3010 ft | 195 kts | 235° |
| 2026-04-27 18:11 | 26.42421 | 50.53865 | 2850 ft | 191 kts | 217° |
| 2026-04-27 18:11 | 26.41301 | 50.53115 | 2670 ft | 184 kts | 205° |
| 2026-04-27 18:11 | 26.40522 | 50.52712 | 2548 ft | 181 kts | 204° |
| 2026-04-27 18:11 | 26.39006 | 50.51952 | 2229 ft | 180 kts | 203° |
| 2026-04-27 18:12 | 26.37876 | 50.51370 | 2082 ft | 179 kts | 203° |
| 2026-04-27 18:12 | 26.37094 | 50.51013 | 2022 ft | 179 kts | 195° |
| 2026-04-27 18:12 | 26.35863 | 50.50872 | 2001 ft | 178 kts | 175° |
| 2026-04-27 18:12 | 26.34721 | 50.51203 | 1991 ft | 165 kts | 156° |
| 2026-04-27 18:13 | 26.33785 | 50.51910 | 1933 ft | 162 kts | 139° |
| 2026-04-27 18:13 | 26.33101 | 50.52913 | 1785 ft | 163 kts | 126° |
| 2026-04-27 18:13 | 26.32494 | 50.53971 | 1604 ft | 158 kts | 125° |
| 2026-04-27 18:13 | 26.31931 | 50.54950 | 1411 ft | 145 kts | 125° |
| 2026-04-27 18:14 | 26.31397 | 50.55878 | 1238 ft | 141 kts | 125° |
| 2026-04-27 18:14 | 26.30872 | 50.56789 | 1058 ft | 138 kts | 125° |
| 2026-04-27 18:14 | 26.30354 | 50.57688 | 893 ft | 138 kts | 124° |
| 2026-04-27 18:14 | 26.29832 | 50.58593 | 728 ft | 139 kts | 123° |
| 2026-04-27 18:15 | 26.29306 | 50.59504 | 561 ft | 139 kts | 124° |
| 2026-04-27 18:15 | 26.28783 | 50.60401 | 398 ft | 138 kts | 122° |
| 2026-04-27 18:15 | 26.28266 | 50.61305 | 231 ft | 138 kts | 122° |
| 2026-04-27 18:15 | 26.27754 | 50.62203 | 34 ft | 135 kts | 121° |
| 2026-04-27 18:16 | 26.27313 | 50.62967 | 16 ft | 94 kts | 122° |
| 2026-04-27 18:16 | 26.27022 | 50.63469 | 15 ft | 67 kts | 123° |
| 2026-04-27 18:16 | 26.26820 | 50.63739 | 17 ft | 28 kts | 166° |
| 2026-04-27 18:16 | 26.26694 | 50.63756 | 20 ft | 10 kts | 174° |
| 2026-04-27 18:17 | 26.26620 | 50.63782 | 21 ft | 12 kts | 194° |
| 2026-04-27 18:17 | 26.26604 | 50.63771 | 21 ft | 0 kts | 214° |
| 2026-04-27 18:17 | 26.26604 | 50.63770 | 21 ft | 0 kts | 214° |
| 2026-04-27 18:17 | 26.26601 | 50.63769 | 21 ft | 3 kts | 214° |
| 2026-04-27 18:18 | 26.26563 | 50.63740 | 21 ft | 9 kts | 214° |
| 2026-04-27 18:18 | 26.26504 | 50.63696 | 21 ft | 10 kts | 213° |
| 2026-04-27 18:18 | 26.26481 | 50.63680 | 24 ft | 0 kts | 211° |
| 2026-04-27 18:18 | 26.26479 | 50.63678 | 23 ft | 0 kts | 213° |